sensor_id;sensor_type;location;lat;lon;timestamp;temperature;humidity
2767;DHT22;1391;46.74287300;11.63683300;2024-03-29T00:01:13;5.00;99.90
2767;DHT22;1391;46.74287300;11.63683300;2024-03-29T00:03:40;5.00;99.90
2767;DHT22;1391;46.74287300;11.63683300;2024-03-29T00:06:06;5.00;99.90
2767;DHT22;1391;46.74287300;11.63683300;2024-03-29T00:08:32;4.90;99.90
2767;DHT22;1391;46.74287300;11.63683300;2024-03-29T00:10:58;4.90;99.90
2767;DHT22;1391;46.74287300;11.63683300;2024-03-29T00:13:26;4.90;99.90
2767;DHT22;1391;46.74287300;11.63683300;2024-03-29T00:15:54;4.90;99.90
2767;DHT22;1391;46.74287300;11.63683300;2024-03-29T00:18:20;4.90;99.90
2767;DHT22;1391;46.74287300;11.63683300;2024-03-29T00:20:51;4.90;99.90
2767;DHT22;1391;46.74287300;11.63683300;2024-03-29T00:23:17;4.80;99.90
2767;DHT22;1391;46.74287300;11.63683300;2024-03-29T00:25:43;5.00;99.90
2767;DHT22;1391;46.74287300;11.63683300;2024-03-29T00:28:10;4.90;99.90
2767;DHT22;1391;46.74287300;11.63683300;2024-03-29T00:30:36;4.80;99.90
2767;DHT22;1391;46.74287300;11.63683300;2024-03-29T00:33:04;5.00;99.90
2767;DHT22;1391;46.74287300;11.63683300;2024-03-29T00:35:30;4.80;99.90
2767;DHT22;1391;46.74287300;11.63683300;2024-03-29T00:37:57;5.00;99.90
2767;DHT22;1391;46.74287300;11.63683300;2024-03-29T00:40:23;5.00;99.90
2767;DHT22;1391;46.74287300;11.63683300;2024-03-29T00:42:49;5.00;99.90
2767;DHT22;1391;46.74287300;11.63683300;2024-03-29T00:45:15;5.00;99.90
2767;DHT22;1391;46.74287300;11.63683300;2024-03-29T00:47:42;5.00;99.90
2767;DHT22;1391;46.74287300;11.63683300;2024-03-29T00:50:10;5.00;99.90
2767;DHT22;1391;46.74287300;11.63683300;2024-03-29T00:52:36;5.00;99.90
2767;DHT22;1391;46.74287300;11.63683300;2024-03-29T00:55:02;4.90;99.90
2767;DHT22;1391;46.74287300;11.63683300;2024-03-29T00:57:29;4.60;99.90
2767;DHT22;1391;46.74287300;11.63683300;2024-03-29T00:59:55;5.00;99.90
2767;DHT22;1391;46.74287300;11.63683300;2024-03-29T01:02:22;4.70;99.90
2767;DHT22;1391;46.74287300;11.63683300;2024-03-29T01:04:48;4.60;99.90
2767;DHT22;1391;46.74287300;11.63683300;2024-03-29T01:07:16;4.70;99.90
2767;DHT22;1391;46.74287300;11.63683300;2024-03-29T01:09:43;4.50;99.90
2767;DHT22;1391;46.74287300;11.63683300;2024-03-29T01:12:09;4.60;99.90
2767;DHT22;1391;46.74287300;11.63683300;2024-03-29T01:14:36;4.70;99.90
2767;DHT22;1391;46.74287300;11.63683300;2024-03-29T01:17:02;4.60;99.90
2767;DHT22;1391;46.74287300;11.63683300;2024-03-29T01:19:29;4.70;99.90
2767;DHT22;1391;46.74287300;11.63683300;2024-03-29T01:21:55;4.60;99.90
2767;DHT22;1391;46.74287300;11.63683300;2024-03-29T01:24:22;4.70;99.90
2767;DHT22;1391;46.74287300;11.63683300;2024-03-29T01:26:49;4.60;99.90
2767;DHT22;1391;46.74287300;11.63683300;2024-03-29T01:29:15;4.70;99.90
2767;DHT22;1391;46.74287300;11.63683300;2024-03-29T01:31:42;4.60;99.90
2767;DHT22;1391;46.74287300;11.63683300;2024-03-29T01:34:11;4.70;99.90
2767;DHT22;1391;46.74287300;11.63683300;2024-03-29T01:36:37;4.40;99.90
2767;DHT22;1391;46.74287300;11.63683300;2024-03-29T01:39:04;4.40;99.90
2767;DHT22;1391;46.74287300;11.63683300;2024-03-29T01:41:31;4.40;99.90
2767;DHT22;1391;46.74287300;11.63683300;2024-03-29T01:43:58;4.40;99.90
2767;DHT22;1391;46.74287300;11.63683300;2024-03-29T01:46:28;4.10;99.90
2767;DHT22;1391;46.74287300;11.63683300;2024-03-29T01:48:55;4.50;99.90
2767;DHT22;1391;46.74287300;11.63683300;2024-03-29T01:51:23;4.40;99.90
2767;DHT22;1391;46.74287300;11.63683300;2024-03-29T01:53:52;3.80;99.90
2767;DHT22;1391;46.74287300;11.63683300;2024-03-29T01:56:20;4.30;99.90
2767;DHT22;1391;46.74287300;11.63683300;2024-03-29T01:58:50;4.40;99.90
2767;DHT22;1391;46.74287300;11.63683300;2024-03-29T02:01:20;4.40;99.90
2767;DHT22;1391;46.74287300;11.63683300;2024-03-29T02:03:48;4.40;99.90
2767;DHT22;1391;46.74287300;11.63683300;2024-03-29T02:06:18;4.40;99.90
2767;DHT22;1391;46.74287300;11.63683300;2024-03-29T02:08:48;4.40;99.90
2767;DHT22;1391;46.74287300;11.63683300;2024-03-29T02:11:16;3.80;99.90
2767;DHT22;1391;46.74287300;11.63683300;2024-03-29T02:13:44;4.00;99.90
2767;DHT22;1391;46.74287300;11.63683300;2024-03-29T02:16:13;4.00;99.90
2767;DHT22;1391;46.74287300;11.63683300;2024-03-29T02:18:40;3.80;99.90
2767;DHT22;1391;46.74287300;11.63683300;2024-03-29T02:21:08;3.80;99.90
2767;DHT22;1391;46.74287300;11.63683300;2024-03-29T02:23:37;3.70;99.90
2767;DHT22;1391;46.74287300;11.63683300;2024-03-29T02:26:10;3.60;99.90
2767;DHT22;1391;46.74287300;11.63683300;2024-03-29T02:28:37;4.00;99.90
2767;DHT22;1391;46.74287300;11.63683300;2024-03-29T02:31:04;4.00;99.90
2767;DHT22;1391;46.74287300;11.63683300;2024-03-29T02:33:32;4.00;99.90
2767;DHT22;1391;46.74287300;11.63683300;2024-03-29T02:35:59;4.00;99.90
2767;DHT22;1391;46.74287300;11.63683300;2024-03-29T02:38:26;4.00;99.90
2767;DHT22;1391;46.74287300;11.63683300;2024-03-29T02:40:53;3.70;99.90
2767;DHT22;1391;46.74287300;11.63683300;2024-03-29T02:43:22;3.60;99.90
2767;DHT22;1391;46.74287300;11.63683300;2024-03-29T02:45:49;3.70;99.90
2767;DHT22;1391;46.74287300;11.63683300;2024-03-29T02:48:15;3.60;99.90
2767;DHT22;1391;46.74287300;11.63683300;2024-03-29T02:50:42;3.70;99.90
2767;DHT22;1391;46.74287300;11.63683300;2024-03-29T02:53:08;3.70;99.90
2767;DHT22;1391;46.74287300;11.63683300;2024-03-29T02:55:35;3.60;99.90
2767;DHT22;1391;46.74287300;11.63683300;2024-03-29T02:58:02;3.70;99.90
2767;DHT22;1391;46.74287300;11.63683300;2024-03-29T03:00:30;3.80;99.90
2767;DHT22;1391;46.74287300;11.63683300;2024-03-29T03:02:56;4.10;99.90
2767;DHT22;1391;46.74287300;11.63683300;2024-03-29T03:05:23;3.90;99.90
2767;DHT22;1391;46.74287300;11.63683300;2024-03-29T03:07:50;3.90;99.90
2767;DHT22;1391;46.74287300;11.63683300;2024-03-29T03:10:34;3.80;99.90
2767;DHT22;1391;46.74287300;11.63683300;2024-03-29T03:13:19;4.30;99.90
2767;DHT22;1391;46.74287300;11.63683300;2024-03-29T03:15:48;4.40;99.90
2767;DHT22;1391;46.74287300;11.63683300;2024-03-29T03:18:15;4.30;99.90
2767;DHT22;1391;46.74287300;11.63683300;2024-03-29T03:20:41;4.40;99.90
2767;DHT22;1391;46.74287300;11.63683300;2024-03-29T03:23:08;4.40;99.90
2767;DHT22;1391;46.74287300;11.63683300;2024-03-29T03:25:34;4.40;99.90
2767;DHT22;1391;46.74287300;11.63683300;2024-03-29T03:28:01;4.60;99.90
2767;DHT22;1391;46.74287300;11.63683300;2024-03-29T03:30:28;4.70;99.90
2767;DHT22;1391;46.74287300;11.63683300;2024-03-29T03:32:57;4.60;99.90
2767;DHT22;1391;46.74287300;11.63683300;2024-03-29T03:35:23;4.70;99.90
2767;DHT22;1391;46.74287300;11.63683300;2024-03-29T03:37:50;4.60;99.90
2767;DHT22;1391;46.74287300;11.63683300;2024-03-29T03:40:16;4.70;99.90
2767;DHT22;1391;46.74287300;11.63683300;2024-03-29T03:42:43;4.50;99.90
2767;DHT22;1391;46.74287300;11.63683300;2024-03-29T03:45:09;4.50;99.90
2767;DHT22;1391;46.74287300;11.63683300;2024-03-29T03:47:37;4.60;99.90
2767;DHT22;1391;46.74287300;11.63683300;2024-03-29T03:50:05;4.70;99.90
2767;DHT22;1391;46.74287300;11.63683300;2024-03-29T03:52:32;4.50;99.90
2767;DHT22;1391;46.74287300;11.63683300;2024-03-29T03:54:58;4.60;99.90
2767;DHT22;1391;46.74287300;11.63683300;2024-03-29T03:57:25;4.70;99.90
2767;DHT22;1391;46.74287300;11.63683300;2024-03-29T03:59:52;4.50;99.90
2767;DHT22;1391;46.74287300;11.63683300;2024-03-29T04:02:19;4.60;99.90
2767;DHT22;1391;46.74287300;11.63683300;2024-03-29T04:04:47;4.80;99.90
2767;DHT22;1391;46.74287300;11.63683300;2024-03-29T04:07:16;5.00;99.90
2767;DHT22;1391;46.74287300;11.63683300;2024-03-29T04:09:42;5.00;99.90
2767;DHT22;1391;46.74287300;11.63683300;2024-03-29T04:12:09;5.00;99.90
2767;DHT22;1391;46.74287300;11.63683300;2024-03-29T04:14:35;5.00;99.90
2767;DHT22;1391;46.74287300;11.63683300;2024-03-29T04:17:03;5.00;99.90
2767;DHT22;1391;46.74287300;11.63683300;2024-03-29T04:19:29;5.00;99.90
2767;DHT22;1391;46.74287300;11.63683300;2024-03-29T04:21:56;4.90;99.90
2767;DHT22;1391;46.74287300;11.63683300;2024-03-29T04:24:23;5.00;99.90
2767;DHT22;1391;46.74287300;11.63683300;2024-03-29T04:26:51;5.00;99.90
2767;DHT22;1391;46.74287300;11.63683300;2024-03-29T04:29:17;5.00;99.90
2767;DHT22;1391;46.74287300;11.63683300;2024-03-29T04:31:45;5.00;99.90
2767;DHT22;1391;46.74287300;11.63683300;2024-03-29T04:34:11;4.90;99.90
2767;DHT22;1391;46.74287300;11.63683300;2024-03-29T04:36:38;5.50;99.90
2767;DHT22;1391;46.74287300;11.63683300;2024-03-29T04:39:05;5.50;99.90
2767;DHT22;1391;46.74287300;11.63683300;2024-03-29T04:41:34;5.50;99.90
2767;DHT22;1391;46.74287300;11.63683300;2024-03-29T04:44:01;5.50;99.90
2767;DHT22;1391;46.74287300;11.63683300;2024-03-29T04:46:29;5.50;99.90
2767;DHT22;1391;46.74287300;11.63683300;2024-03-29T04:48:58;5.50;99.90
2767;DHT22;1391;46.74287300;11.63683300;2024-03-29T04:51:25;5.20;99.90
2767;DHT22;1391;46.74287300;11.63683300;2024-03-29T04:53:52;5.50;99.90
2767;DHT22;1391;46.74287300;11.63683300;2024-03-29T04:56:19;5.40;99.90
2767;DHT22;1391;46.74287300;11.63683300;2024-03-29T04:58:48;5.30;99.90
2767;DHT22;1391;46.74287300;11.63683300;2024-03-29T05:01:15;5.40;99.90
2767;DHT22;1391;46.74287300;11.63683300;2024-03-29T05:03:42;5.30;99.90
2767;DHT22;1391;46.74287300;11.63683300;2024-03-29T05:06:10;5.40;99.90
2767;DHT22;1391;46.74287300;11.63683300;2024-03-29T05:08:37;5.30;99.90
2767;DHT22;1391;46.74287300;11.63683300;2024-03-29T05:11:04;5.40;99.90
2767;DHT22;1391;46.74287300;11.63683300;2024-03-29T05:13:33;5.30;99.90
2767;DHT22;1391;46.74287300;11.63683300;2024-03-29T05:16:01;5.30;99.90
2767;DHT22;1391;46.74287300;11.63683300;2024-03-29T05:18:29;5.40;99.90
2767;DHT22;1391;46.74287300;11.63683300;2024-03-29T05:20:56;5.30;99.90
2767;DHT22;1391;46.74287300;11.63683300;2024-03-29T05:23:24;5.30;99.90
2767;DHT22;1391;46.74287300;11.63683300;2024-03-29T05:25:51;5.40;99.90
2767;DHT22;1391;46.74287300;11.63683300;2024-03-29T05:28:18;5.30;99.90
2767;DHT22;1391;46.74287300;11.63683300;2024-03-29T05:30:46;5.40;99.90
2767;DHT22;1391;46.74287300;11.63683300;2024-03-29T05:33:14;5.30;99.90
2767;DHT22;1391;46.74287300;11.63683300;2024-03-29T05:35:42;5.40;99.90
2767;DHT22;1391;46.74287300;11.63683300;2024-03-29T05:38:08;5.30;99.90
2767;DHT22;1391;46.74287300;11.63683300;2024-03-29T05:40:35;5.40;99.90
2767;DHT22;1391;46.74287300;11.63683300;2024-03-29T05:43:03;5.30;99.90
2767;DHT22;1391;46.74287300;11.63683300;2024-03-29T05:45:31;5.40;99.90
2767;DHT22;1391;46.74287300;11.63683300;2024-03-29T05:47:58;5.30;99.90
2767;DHT22;1391;46.74287300;11.63683300;2024-03-29T05:50:27;5.40;99.90
2767;DHT22;1391;46.74287300;11.63683300;2024-03-29T05:52:54;5.30;99.90
2767;DHT22;1391;46.74287300;11.63683300;2024-03-29T05:55:22;5.40;99.90
2767;DHT22;1391;46.74287300;11.63683300;2024-03-29T05:57:49;5.30;99.90
2767;DHT22;1391;46.74287300;11.63683300;2024-03-29T06:00:16;5.40;99.90
2767;DHT22;1391;46.74287300;11.63683300;2024-03-29T06:02:44;5.30;99.90
2767;DHT22;1391;46.74287300;11.63683300;2024-03-29T06:05:11;5.60;99.90
2767;DHT22;1391;46.74287300;11.63683300;2024-03-29T06:07:40;5.90;99.90
2767;DHT22;1391;46.74287300;11.63683300;2024-03-29T06:10:08;5.70;99.90
2767;DHT22;1391;46.74287300;11.63683300;2024-03-29T06:12:36;5.70;99.90
2767;DHT22;1391;46.74287300;11.63683300;2024-03-29T06:15:05;5.70;99.90
2767;DHT22;1391;46.74287300;11.63683300;2024-03-29T06:17:51;5.70;99.90
2767;DHT22;1391;46.74287300;11.63683300;2024-03-29T06:20:18;5.70;99.90
2767;DHT22;1391;46.74287300;11.63683300;2024-03-29T06:22:47;5.70;99.90
2767;DHT22;1391;46.74287300;11.63683300;2024-03-29T06:25:14;5.70;99.90
2767;DHT22;1391;46.74287300;11.63683300;2024-03-29T06:27:42;5.80;99.90
2767;DHT22;1391;46.74287300;11.63683300;2024-03-29T06:30:14;5.80;99.90
2767;DHT22;1391;46.74287300;11.63683300;2024-03-29T06:32:42;5.70;99.90
2767;DHT22;1391;46.74287300;11.63683300;2024-03-29T06:35:10;5.70;99.90
2767;DHT22;1391;46.74287300;11.63683300;2024-03-29T06:37:38;5.70;99.90
2767;DHT22;1391;46.74287300;11.63683300;2024-03-29T06:40:08;5.70;99.90
2767;DHT22;1391;46.74287300;11.63683300;2024-03-29T06:42:36;6.00;99.90
2767;DHT22;1391;46.74287300;11.63683300;2024-03-29T06:45:04;6.10;99.90
2767;DHT22;1391;46.74287300;11.63683300;2024-03-29T06:47:32;6.10;99.90
2767;DHT22;1391;46.74287300;11.63683300;2024-03-29T06:49:59;6.00;99.90
2767;DHT22;1391;46.74287300;11.63683300;2024-03-29T06:52:27;6.00;99.90
2767;DHT22;1391;46.74287300;11.63683300;2024-03-29T06:54:54;6.00;99.90
2767;DHT22;1391;46.74287300;11.63683300;2024-03-29T06:57:22;6.40;99.90
2767;DHT22;1391;46.74287300;11.63683300;2024-03-29T06:59:51;6.10;99.90
2767;DHT22;1391;46.74287300;11.63683300;2024-03-29T07:02:19;6.30;99.90
2767;DHT22;1391;46.74287300;11.63683300;2024-03-29T07:04:46;6.30;99.90
2767;DHT22;1391;46.74287300;11.63683300;2024-03-29T07:07:13;6.10;99.90
2767;DHT22;1391;46.74287300;11.63683300;2024-03-29T07:09:41;6.10;99.90
2767;DHT22;1391;46.74287300;11.63683300;2024-03-29T07:12:08;6.10;99.90
2767;DHT22;1391;46.74287300;11.63683300;2024-03-29T07:14:37;6.10;99.90
2767;DHT22;1391;46.74287300;11.63683300;2024-03-29T07:17:04;6.10;99.90
2767;DHT22;1391;46.74287300;11.63683300;2024-03-29T07:19:32;6.10;99.90
2767;DHT22;1391;46.74287300;11.63683300;2024-03-29T07:21:59;6.10;99.90
2767;DHT22;1391;46.74287300;11.63683300;2024-03-29T07:24:26;6.10;99.90
2767;DHT22;1391;46.74287300;11.63683300;2024-03-29T07:26:53;6.10;99.90
2767;DHT22;1391;46.74287300;11.63683300;2024-03-29T07:29:21;6.40;99.90
2767;DHT22;1391;46.74287300;11.63683300;2024-03-29T07:31:50;6.40;99.90
2767;DHT22;1391;46.74287300;11.63683300;2024-03-29T07:34:19;6.50;99.90
2767;DHT22;1391;46.74287300;11.63683300;2024-03-29T07:36:47;6.60;99.90
2767;DHT22;1391;46.74287300;11.63683300;2024-03-29T07:39:14;6.80;99.90
2767;DHT22;1391;46.74287300;11.63683300;2024-03-29T07:41:41;6.60;99.90
2767;DHT22;1391;46.74287300;11.63683300;2024-03-29T07:44:08;6.70;99.90
2767;DHT22;1391;46.74287300;11.63683300;2024-03-29T07:46:36;6.50;99.90
2767;DHT22;1391;46.74287300;11.63683300;2024-03-29T07:49:06;7.00;99.90
2767;DHT22;1391;46.74287300;11.63683300;2024-03-29T07:51:34;7.00;99.90
2767;DHT22;1391;46.74287300;11.63683300;2024-03-29T07:54:01;6.90;99.90
2767;DHT22;1391;46.74287300;11.63683300;2024-03-29T07:56:30;7.20;99.90
2767;DHT22;1391;46.74287300;11.63683300;2024-03-29T07:58:57;7.00;99.90
2767;DHT22;1391;46.74287300;11.63683300;2024-03-29T08:01:24;7.00;99.90
2767;DHT22;1391;46.74287300;11.63683300;2024-03-29T08:03:52;7.00;99.90
2767;DHT22;1391;46.74287300;11.63683300;2024-03-29T08:06:21;6.90;99.90
2767;DHT22;1391;46.74287300;11.63683300;2024-03-29T08:08:50;7.20;99.90
2767;DHT22;1391;46.74287300;11.63683300;2024-03-29T08:11:17;7.00;99.90
2767;DHT22;1391;46.74287300;11.63683300;2024-03-29T08:13:45;7.00;99.90
2767;DHT22;1391;46.74287300;11.63683300;2024-03-29T08:16:12;6.90;99.90
2767;DHT22;1391;46.74287300;11.63683300;2024-03-29T08:18:42;7.20;99.90
2767;DHT22;1391;46.74287300;11.63683300;2024-03-29T08:21:09;6.90;99.90
2767;DHT22;1391;46.74287300;11.63683300;2024-03-29T08:23:40;7.20;99.90
2767;DHT22;1391;46.74287300;11.63683300;2024-03-29T08:26:10;6.90;99.90
2767;DHT22;1391;46.74287300;11.63683300;2024-03-29T08:28:38;7.20;99.90
2767;DHT22;1391;46.74287300;11.63683300;2024-03-29T08:31:06;7.60;99.90
2767;DHT22;1391;46.74287300;11.63683300;2024-03-29T08:33:34;7.10;99.90
2767;DHT22;1391;46.74287300;11.63683300;2024-03-29T08:36:03;7.50;99.90
2767;DHT22;1391;46.74287300;11.63683300;2024-03-29T08:38:31;7.50;99.90
2767;DHT22;1391;46.74287300;11.63683300;2024-03-29T08:41:00;7.60;99.90
2767;DHT22;1391;46.74287300;11.63683300;2024-03-29T08:43:28;7.50;99.90
2767;DHT22;1391;46.74287300;11.63683300;2024-03-29T08:45:55;7.70;99.90
2767;DHT22;1391;46.74287300;11.63683300;2024-03-29T08:48:23;7.70;99.90
2767;DHT22;1391;46.74287300;11.63683300;2024-03-29T08:50:50;7.60;99.90
2767;DHT22;1391;46.74287300;11.63683300;2024-03-29T08:53:18;7.50;99.90
2767;DHT22;1391;46.74287300;11.63683300;2024-03-29T08:55:46;7.40;99.90
2767;DHT22;1391;46.74287300;11.63683300;2024-03-29T08:58:16;7.50;99.90
2767;DHT22;1391;46.74287300;11.63683300;2024-03-29T09:00:52;7.60;99.90
2767;DHT22;1391;46.74287300;11.63683300;2024-03-29T09:03:20;7.30;99.90
2767;DHT22;1391;46.74287300;11.63683300;2024-03-29T09:05:48;7.00;99.90
2767;DHT22;1391;46.74287300;11.63683300;2024-03-29T09:08:15;7.50;99.90
2767;DHT22;1391;46.74287300;11.63683300;2024-03-29T09:10:43;7.30;99.90
2767;DHT22;1391;46.74287300;11.63683300;2024-03-29T09:13:10;7.30;99.90
2767;DHT22;1391;46.74287300;11.63683300;2024-03-29T09:15:39;7.30;99.90
2767;DHT22;1391;46.74287300;11.63683300;2024-03-29T09:18:07;7.30;99.90
2767;DHT22;1391;46.74287300;11.63683300;2024-03-29T09:20:43;7.20;99.90
2767;DHT22;1391;46.74287300;11.63683300;2024-03-29T09:23:11;7.60;99.90
2767;DHT22;1391;46.74287300;11.63683300;2024-03-29T09:25:42;7.40;99.90
2767;DHT22;1391;46.74287300;11.63683300;2024-03-29T09:28:10;7.60;99.90
2767;DHT22;1391;46.74287300;11.63683300;2024-03-29T09:30:38;7.20;99.90
2767;DHT22;1391;46.74287300;11.63683300;2024-03-29T09:33:06;7.60;99.90
2767;DHT22;1391;46.74287300;11.63683300;2024-03-29T09:35:35;7.20;99.90
2767;DHT22;1391;46.74287300;11.63683300;2024-03-29T09:38:02;7.30;99.90
2767;DHT22;1391;46.74287300;11.63683300;2024-03-29T09:40:30;7.30;99.90
2767;DHT22;1391;46.74287300;11.63683300;2024-03-29T09:43:00;7.30;99.90
2767;DHT22;1391;46.74287300;11.63683300;2024-03-29T09:45:31;7.30;99.90
2767;DHT22;1391;46.74287300;11.63683300;2024-03-29T09:48:03;7.30;99.90
2767;DHT22;1391;46.74287300;11.63683300;2024-03-29T09:50:31;7.30;99.90
2767;DHT22;1391;46.74287300;11.63683300;2024-03-29T09:53:00;7.50;99.90
2767;DHT22;1391;46.74287300;11.63683300;2024-03-29T09:55:28;7.20;99.90
2767;DHT22;1391;46.74287300;11.63683300;2024-03-29T09:57:56;7.60;99.90
2767;DHT22;1391;46.74287300;11.63683300;2024-03-29T10:00:27;7.50;99.90
2767;DHT22;1391;46.74287300;11.63683300;2024-03-29T10:02:56;7.40;99.90
2767;DHT22;1391;46.74287300;11.63683300;2024-03-29T10:05:26;7.50;99.90
2767;DHT22;1391;46.74287300;11.63683300;2024-03-29T10:07:54;7.40;99.90
2767;DHT22;1391;46.74287300;11.63683300;2024-03-29T10:10:22;7.70;99.90
2767;DHT22;1391;46.74287300;11.63683300;2024-03-29T10:12:49;7.60;99.90
2767;DHT22;1391;46.74287300;11.63683300;2024-03-29T10:15:17;7.40;99.90
2767;DHT22;1391;46.74287300;11.63683300;2024-03-29T10:17:47;7.40;99.90
2767;DHT22;1391;46.74287300;11.63683300;2024-03-29T10:20:16;7.50;99.90
2767;DHT22;1391;46.74287300;11.63683300;2024-03-29T10:22:46;7.70;99.90
2767;DHT22;1391;46.74287300;11.63683300;2024-03-29T10:25:13;7.60;99.90
2767;DHT22;1391;46.74287300;11.63683300;2024-03-29T10:27:40;7.70;99.90
2767;DHT22;1391;46.74287300;11.63683300;2024-03-29T10:30:09;7.70;99.90
2767;DHT22;1391;46.74287300;11.63683300;2024-03-29T10:32:40;7.60;99.90
2767;DHT22;1391;46.74287300;11.63683300;2024-03-29T10:35:08;7.80;99.90
2767;DHT22;1391;46.74287300;11.63683300;2024-03-29T10:37:36;7.40;99.90
2767;DHT22;1391;46.74287300;11.63683300;2024-03-29T10:40:08;7.70;99.90
2767;DHT22;1391;46.74287300;11.63683300;2024-03-29T10:42:37;7.60;99.90
2767;DHT22;1391;46.74287300;11.63683300;2024-03-29T10:45:06;8.00;99.90
2767;DHT22;1391;46.74287300;11.63683300;2024-03-29T10:47:34;8.00;99.90
2767;DHT22;1391;46.74287300;11.63683300;2024-03-29T10:50:01;8.00;99.90
2767;DHT22;1391;46.74287300;11.63683300;2024-03-29T10:52:31;8.00;99.90
2767;DHT22;1391;46.74287300;11.63683300;2024-03-29T10:54:58;8.00;99.90
2767;DHT22;1391;46.74287300;11.63683300;2024-03-29T10:57:27;8.10;99.90
2767;DHT22;1391;46.74287300;11.63683300;2024-03-29T11:00:02;8.00;99.90
2767;DHT22;1391;46.74287300;11.63683300;2024-03-29T11:02:39;8.10;99.90
2767;DHT22;1391;46.74287300;11.63683300;2024-03-29T11:05:12;8.00;99.90
2767;DHT22;1391;46.74287300;11.63683300;2024-03-29T11:07:42;8.00;99.90
2767;DHT22;1391;46.74287300;11.63683300;2024-03-29T11:10:17;8.10;99.90
2767;DHT22;1391;46.74287300;11.63683300;2024-03-29T11:12:58;7.90;99.90
2767;DHT22;1391;46.74287300;11.63683300;2024-03-29T11:15:29;8.20;99.90
2767;DHT22;1391;46.74287300;11.63683300;2024-03-29T11:17:57;8.30;99.90
2767;DHT22;1391;46.74287300;11.63683300;2024-03-29T11:20:26;8.50;99.90
2767;DHT22;1391;46.74287300;11.63683300;2024-03-29T11:23:02;8.40;99.90
2767;DHT22;1391;46.74287300;11.63683300;2024-03-29T11:25:42;8.00;99.90
2767;DHT22;1391;46.74287300;11.63683300;2024-03-29T11:28:12;8.40;99.90
2767;DHT22;1391;46.74287300;11.63683300;2024-03-29T11:30:45;8.00;99.90
2767;DHT22;1391;46.74287300;11.63683300;2024-03-29T11:33:30;8.10;99.90
2767;DHT22;1391;46.74287300;11.63683300;2024-03-29T11:35:58;8.00;99.90
2767;DHT22;1391;46.74287300;11.63683300;2024-03-29T11:38:31;8.00;99.90
2767;DHT22;1391;46.74287300;11.63683300;2024-03-29T11:41:06;8.10;99.90
2767;DHT22;1391;46.74287300;11.63683300;2024-03-29T11:43:36;7.90;99.90
2767;DHT22;1391;46.74287300;11.63683300;2024-03-29T11:46:06;7.90;99.90
2767;DHT22;1391;46.74287300;11.63683300;2024-03-29T11:48:35;7.90;99.90
2767;DHT22;1391;46.74287300;11.63683300;2024-03-29T11:51:03;8.00;99.90
2767;DHT22;1391;46.74287300;11.63683300;2024-03-29T11:53:32;8.10;99.90
2767;DHT22;1391;46.74287300;11.63683300;2024-03-29T11:56:00;7.90;99.90
2767;DHT22;1391;46.74287300;11.63683300;2024-03-29T11:58:29;8.00;99.90
2767;DHT22;1391;46.74287300;11.63683300;2024-03-29T12:01:00;8.40;99.90
2767;DHT22;1391;46.74287300;11.63683300;2024-03-29T12:03:29;8.00;99.90
2767;DHT22;1391;46.74287300;11.63683300;2024-03-29T12:05:58;8.10;99.90
2767;DHT22;1391;46.74287300;11.63683300;2024-03-29T12:08:29;8.00;99.90
2767;DHT22;1391;46.74287300;11.63683300;2024-03-29T12:10:57;8.10;99.90
2767;DHT22;1391;46.74287300;11.63683300;2024-03-29T12:13:25;8.00;99.90
2767;DHT22;1391;46.74287300;11.63683300;2024-03-29T12:15:52;8.10;99.90
2767;DHT22;1391;46.74287300;11.63683300;2024-03-29T12:18:22;7.90;99.90
2767;DHT22;1391;46.74287300;11.63683300;2024-03-29T12:20:51;7.90;99.90
2767;DHT22;1391;46.74287300;11.63683300;2024-03-29T12:23:20;7.90;99.90
2767;DHT22;1391;46.74287300;11.63683300;2024-03-29T12:25:49;7.90;99.90
2767;DHT22;1391;46.74287300;11.63683300;2024-03-29T12:28:17;8.00;99.90
2767;DHT22;1391;46.74287300;11.63683300;2024-03-29T12:30:46;8.10;99.90
2767;DHT22;1391;46.74287300;11.63683300;2024-03-29T12:33:15;8.00;99.90
2767;DHT22;1391;46.74287300;11.63683300;2024-03-29T12:35:47;8.10;99.90
2767;DHT22;1391;46.74287300;11.63683300;2024-03-29T12:38:16;8.00;99.90
2767;DHT22;1391;46.74287300;11.63683300;2024-03-29T12:40:45;8.10;99.90
2767;DHT22;1391;46.74287300;11.63683300;2024-03-29T12:43:14;7.90;99.90
2767;DHT22;1391;46.74287300;11.63683300;2024-03-29T12:45:43;7.90;99.90
2767;DHT22;1391;46.74287300;11.63683300;2024-03-29T12:48:11;7.80;99.90
2767;DHT22;1391;46.74287300;11.63683300;2024-03-29T12:50:40;8.00;99.90
2767;DHT22;1391;46.74287300;11.63683300;2024-03-29T12:53:10;8.10;99.90
2767;DHT22;1391;46.74287300;11.63683300;2024-03-29T12:55:39;7.90;99.90
2767;DHT22;1391;46.74287300;11.63683300;2024-03-29T12:58:07;7.90;99.90
2767;DHT22;1391;46.74287300;11.63683300;2024-03-29T13:00:37;8.20;99.90
2767;DHT22;1391;46.74287300;11.63683300;2024-03-29T13:03:05;8.00;99.90
2767;DHT22;1391;46.74287300;11.63683300;2024-03-29T13:05:32;8.10;99.90
2767;DHT22;1391;46.74287300;11.63683300;2024-03-29T13:08:05;8.00;99.90
2767;DHT22;1391;46.74287300;11.63683300;2024-03-29T13:10:36;8.00;99.90
2767;DHT22;1391;46.74287300;11.63683300;2024-03-29T13:13:04;8.10;99.90
2767;DHT22;1391;46.74287300;11.63683300;2024-03-29T13:15:33;8.00;99.90
2767;DHT22;1391;46.74287300;11.63683300;2024-03-29T13:18:02;8.10;99.90
2767;DHT22;1391;46.74287300;11.63683300;2024-03-29T13:20:31;8.00;99.90
2767;DHT22;1391;46.74287300;11.63683300;2024-03-29T13:23:00;8.10;99.90
2767;DHT22;1391;46.74287300;11.63683300;2024-03-29T13:25:28;8.60;99.90
2767;DHT22;1391;46.74287300;11.63683300;2024-03-29T13:27:57;8.50;99.90
2767;DHT22;1391;46.74287300;11.63683300;2024-03-29T13:30:26;8.40;99.90
2767;DHT22;1391;46.74287300;11.63683300;2024-03-29T13:32:53;8.70;99.90
2767;DHT22;1391;46.74287300;11.63683300;2024-03-29T13:35:21;8.40;99.90
2767;DHT22;1391;46.74287300;11.63683300;2024-03-29T13:37:51;8.60;99.90
2767;DHT22;1391;46.74287300;11.63683300;2024-03-29T13:40:21;8.80;99.90
2767;DHT22;1391;46.74287300;11.63683300;2024-03-29T13:42:50;8.90;99.90
2767;DHT22;1391;46.74287300;11.63683300;2024-03-29T13:45:19;9.10;99.90
2767;DHT22;1391;46.74287300;11.63683300;2024-03-29T13:47:46;8.90;99.90
2767;DHT22;1391;46.74287300;11.63683300;2024-03-29T13:50:14;9.10;99.90
2767;DHT22;1391;46.74287300;11.63683300;2024-03-29T13:52:41;9.00;99.90